Time,TemperatureF,DewpointF,PressureIn,WindDirection,WindDirectionDegrees,WindSpeedMPH,WindSpeedGustMPH,Humidity,HourlyPrecipIn,Conditions,Clouds,dailyrainin,SolarRadiationWatts/m^2,SoftwareType,DateUTC
2015-01-26 00:04:00,11.4,2.9,30.03,NNW,346,2.3,2.3,68,0.00,RA,SKC,0.00,0.0,WeatherDisplay:10.37,2015-01-26 05:04:00,
2015-01-26 00:09:00,11.3,2.8,30.03,North,9,3.5,3.5,68,0.00,RA,SKC,0.00,0.0,WeatherDisplay:10.37,2015-01-26 05:09:00,
2015-01-26 00:14:00,11.1,2.6,30.03,NNE,19,0.0,0.0,68,0.00,CLR,SKC,0.00,0.0,WeatherDisplay:10.37,2015-01-26 05:14:00,
2015-01-26 00:19:00,11.0,2.5,30.04,WNW,284,0.0,0.0,68,0.00,CLR,SKC,0.00,0.0,WeatherDisplay:10.37,2015-01-26 05:19:00,
2015-01-26 00:24:00,10.8,2.3,30.04,NW,305,0.0,0.0,68,0.00,CLR,SKC,0.00,0.0,WeatherDisplay:10.37,2015-01-26 05:24:00,
2015-01-26 00:29:00,10.7,2.5,30.04,North,360,1.0,1.0,69,0.00,CLR,SKC,0.00,0.0,WeatherDisplay:10.37,2015-01-26 05:29:00,
2015-01-26 00:34:00,10.5,2.3,30.04,NE,44,0.0,0.0,69,0.00,CLR,SKC,0.00,0.0,WeatherDisplay:10.37,2015-01-26 05:34:00,
2015-01-26 00:39:00,10.4,2.2,30.04,NNW,333,0.0,0.0,69,0.00,CLR,SKC,0.00,0.0,WeatherDisplay:10.37,2015-01-26 05:39:00,
2015-01-26 00:44:00,10.1,2.3,30.04,NNW,343,2.3,2.3,70,0.00,CLR,SKC,0.00,0.0,WeatherDisplay:10.37,2015-01-26 05:44:00,
2015-01-26 00:49:00,9.9,2.1,30.04,NNE,32,2.3,2.3,70,0.00,CLR,SKC,0.00,0.0,WeatherDisplay:10.37,2015-01-26 05:49:00,
2015-01-26 00:54:00,9.7,1.9,30.04,North,10,1.2,1.2,70,0.00,CLR,SKC,0.00,0.0,WeatherDisplay:10.37,2015-01-26 05:54:00,
2015-01-26 00:59:00,9.6,2.1,30.05,NNE,15,0.0,0.0,71,0.00,CLR,SKC,0.00,0.0,WeatherDisplay:10.37,2015-01-26 05:59:00,
2015-01-26 01:04:00,9.4,1.9,30.05,NNW,342,0.0,0.0,71,0.00,CLR,SKC,0.00,0.0,WeatherDisplay:10.37,2015-01-26 06:04:00,
2015-01-26 01:09:00,9.3,1.8,30.05,NNW,340,1.2,1.2,71,0.00,CLR,SKC,0.00,0.0,WeatherDisplay:10.37,2015-01-26 06:09:00,
2015-01-26 01:14:00,9.2,1.7,30.04,NNE,32,4.0,4.0,71,0.00,CLR,SKC,0.00,0.0,WeatherDisplay:10.37,2015-01-26 06:14:00,
2015-01-26 01:19:00,9.1,1.6,30.03,North,5,2.3,0.0,71,0.00,CLR,SKC,0.00,0.0,WeatherDisplay:10.37,2015-01-26 06:19:00,
2015-01-26 01:24:00,8.9,1.4,30.03,WNW,287,1.2,1.2,71,0.00,CLR,SKC,0.00,0.0,WeatherDisplay:10.37,2015-01-26 06:24:00,
2015-01-26 01:29:00,8.8,1.3,30.03,NNE,22,5.8,5.8,71,0.00,CLR,SKC,0.00,0.0,WeatherDisplay:10.37,2015-01-26 06:29:00,
2015-01-26 01:34:00,8.6,1.4,30.04,NE,51,4.6,4.6,72,0.00,CLR,SKC,0.00,0.0,WeatherDisplay:10.37,2015-01-26 06:34:00,
2015-01-26 01:39:00,8.5,1.3,30.04,West,279,3.5,3.5,72,0.00,CLR,SKC,0.00,0.0,WeatherDisplay:10.37,2015-01-26 06:39:00,
2015-01-26 01:44:00,8.4,1.2,30.04,NE,51,1.2,0.0,72,0.00,CLR,SKC,0.00,0.0,WeatherDisplay:10.37,2015-01-26 06:44:00,
2015-01-26 01:49:00,8.2,1.0,30.04,NE,45,0.0,0.0,72,0.00,CLR,SKC,0.00,0.0,WeatherDisplay:10.37,2015-01-26 06:49:00,
2015-01-26 01:54:00,8.1,0.9,30.04,WNW,299,2.3,2.3,72,0.00,CLR,SKC,0.00,0.0,WeatherDisplay:10.37,2015-01-26 06:54:00,
2015-01-26 01:59:00,8.0,1.1,30.04,NW,310,0.0,0.0,73,0.00,CLR,SKC,0.00,0.0,WeatherDisplay:10.37,2015-01-26 06:59:00,
2015-01-26 02:04:00,7.9,0.7,30.04,ENE,71,1.0,0.0,72,0.00,CLR,SKC,0.00,0.0,WeatherDisplay:10.37,2015-01-26 07:04:00,
2015-01-26 02:09:00,7.7,0.5,30.04,East,86,0.0,0.0,72,0.00,CLR,SKC,0.00,0.0,WeatherDisplay:10.37,2015-01-26 07:09:00,
2015-01-26 02:14:00,7.7,0.5,30.04,West,270,0.0,0.0,72,0.00,CLR,SKC,0.00,0.0,WeatherDisplay:10.37,2015-01-26 07:14:00,
2015-01-26 02:19:00,7.5,0.4,30.05,NNW,342,2.3,2.3,72,0.00,CLR,SKC,0.00,0.0,WeatherDisplay:10.37,2015-01-26 07:19:00,
2015-01-26 02:24:00,7.5,0.4,30.05,WNW,296,1.2,1.2,72,0.00,CLR,SKC,0.00,0.0,WeatherDisplay:10.37,2015-01-26 07:24:00,
2015-01-26 02:29:00,7.4,0.3,30.05,NE,53,0.0,0.0,72,0.00,CLR,SKC,0.00,0.0,WeatherDisplay:10.37,2015-01-26 07:29:00,
2015-01-26 02:34:00,7.4,0.3,30.05,NNE,29,1.2,1.2,72,0.00,CLR,SKC,0.00,0.0,WeatherDisplay:10.37,2015-01-26 07:34:00,
2015-01-26 02:39:00,7.3,0.5,30.05,North,360,0.0,0.0,73,0.00,CLR,SKC,0.00,0.0,WeatherDisplay:10.37,2015-01-26 07:39:00,
2015-01-26 02:44:00,7.3,0.5,30.04,ENE,69,3.5,3.5,73,0.00,CLR,SKC,0.00,0.0,WeatherDisplay:10.37,2015-01-26 07:44:00,
2015-01-26 02:49:00,7.2,0.4,30.04,NW,311,2.3,2.3,73,0.00,CLR,SKC,0.00,0.0,WeatherDisplay:10.37,2015-01-26 07:49:00,
2015-01-26 02:54:00,7.1,0.0,30.05,West,274,0.0,0.0,72,0.00,CLR,SKC,0.00,0.0,WeatherDisplay:10.37,2015-01-26 07:54:00,
2015-01-26 02:59:00,7.0,-0.1,30.05,NNE,28,0.0,0.0,72,0.00,CLR,SKC,0.00,0.0,WeatherDisplay:10.37,2015-01-26 07:59:00,
2015-01-26 03:04:00,7.0,0.2,30.05,NNE,13,0.0,0.0,73,0.00,CLR,SKC,0.00,0.0,WeatherDisplay:10.37,2015-01-26 08:04:00,
2015-01-26 03:09:00,6.9,-0.2,30.06,NW,311,0.0,0.0,72,0.00,CLR,SKC,0.00,0.0,WeatherDisplay:10.37,2015-01-26 08:09:00,
2015-01-26 03:14:00,6.9,-0.2,30.06,West,270,2.3,2.3,72,0.00,CLR,SKC,0.00,0.0,WeatherDisplay:10.37,2015-01-26 08:14:00,
2015-01-26 03:19:00,6.9,-0.2,30.06,NW,315,3.5,3.5,72,0.00,CLR,SKC,0.00,0.0,WeatherDisplay:10.37,2015-01-26 08:19:00,
2015-01-26 03:24:00,6.9,-0.5,30.06,North,360,3.5,3.5,71,0.00,CLR,SKC,0.00,0.0,WeatherDisplay:10.37,2015-01-26 08:24:00,
2015-01-26 03:29:00,6.8,-0.6,30.06,WNW,301,0.0,0.0,71,0.00,CLR,SKC,0.00,0.0,WeatherDisplay:10.37,2015-01-26 08:29:00,
2015-01-26 03:34:00,6.7,-0.7,30.07,NNW,333,0.0,0.0,71,0.00,CLR,SKC,0.00,0.0,WeatherDisplay:10.37,2015-01-26 08:34:00,
2015-01-26 03:39:00,6.7,-0.7,30.06,NW,325,0.0,0.0,71,0.00,CLR,SKC,0.00,0.0,WeatherDisplay:10.37,2015-01-26 08:39:00,
2015-01-26 03:44:00,6.7,-0.7,30.07,NNE,25,2.3,2.3,71,0.00,CLR,SKC,0.00,0.0,WeatherDisplay:10.37,2015-01-26 08:44:00,
2015-01-26 03:49:00,6.6,-0.8,30.07,NNE,17,0.0,0.0,71,0.00,CLR,SKC,0.00,0.0,WeatherDisplay:10.37,2015-01-26 08:49:00,
2015-01-26 03:54:00,6.6,-0.8,30.07,NW,311,3.5,3.5,71,0.00,CLR,SKC,0.00,0.0,WeatherDisplay:10.37,2015-01-26 08:54:00,
2015-01-26 03:59:00,6.5,-0.9,30.07,NNW,344,0.0,0.0,71,0.00,CLR,SKC,0.00,0.0,WeatherDisplay:10.37,2015-01-26 08:59:00,
2015-01-26 04:04:00,6.5,-0.9,30.07,NNE,28,3.5,3.5,71,0.00,CLR,SKC,0.00,0.0,WeatherDisplay:10.37,2015-01-26 09:04:00,
2015-01-26 04:09:00,6.4,-0.7,30.07,South,184,0.0,0.0,72,0.00,CLR,SKC,0.00,0.0,WeatherDisplay:10.37,2015-01-26 09:09:00,
2015-01-26 04:14:00,6.4,-0.7,30.07,NNW,333,2.3,0.0,72,0.00,CLR,SKC,0.00,0.0,WeatherDisplay:10.37,2015-01-26 09:14:00,
2015-01-26 04:19:00,6.3,-0.8,30.07,NNE,18,3.5,3.5,72,0.00,CLR,SKC,0.00,0.0,WeatherDisplay:10.37,2015-01-26 09:19:00,
2015-01-26 04:24:00,6.2,-0.9,30.07,WNW,302,1.0,0.0,72,0.00,CLR,SKC,0.00,0.0,WeatherDisplay:10.37,2015-01-26 09:24:00,
2015-01-26 04:29:00,6.2,-0.9,30.06,NNW,342,0.0,0.0,72,0.00,CLR,SKC,0.00,0.0,WeatherDisplay:10.37,2015-01-26 09:29:00,
2015-01-26 04:34:00,6.1,-1.0,30.06,NW,311,3.5,3.5,72,0.00,CLR,SKC,0.00,0.0,WeatherDisplay:10.37,2015-01-26 09:34:00,
2015-01-26 04:39:00,6.0,-1.1,30.07,North,360,0.0,0.0,72,0.00,CLR,SKC,0.00,0.0,WeatherDisplay:10.37,2015-01-26 09:39:00,
2015-01-26 04:44:00,5.9,-1.2,30.07,NW,321,3.5,3.5,72,0.00,CLR,SKC,0.00,0.0,WeatherDisplay:10.37,2015-01-26 09:44:00,
2015-01-26 04:49:00,5.8,-1.3,30.07,NW,311,3.5,3.5,72,0.00,CLR,SKC,0.00,0.0,WeatherDisplay:10.37,2015-01-26 09:49:00,
2015-01-26 04:54:00,5.7,-1.4,30.06,ENE,78,0.0,0.0,72,0.00,CLR,SKC,0.00,0.0,WeatherDisplay:10.37,2015-01-26 09:54:00,